sensor_id;sensor_type;location;lat;lon;timestamp;pressure;altitude;pressure_sealevel;temperature;humidity
14293;BME280;62290;59.420;17.842;2024-03-22T00:02:02;100748.81;;;23.83;25.24
14293;BME280;62290;59.420;17.842;2024-03-22T00:04:29;100720.47;;;23.70;25.33
14293;BME280;62290;59.420;17.842;2024-03-22T00:06:55;100747.25;;;23.81;25.46
14293;BME280;62290;59.420;17.842;2024-03-22T00:09:23;100730.25;;;23.80;25.36
14293;BME280;62290;59.420;17.842;2024-03-22T00:11:49;100728.41;;;23.81;25.29
14293;BME280;62290;59.420;17.842;2024-03-22T00:14:16;100727.56;;;23.80;25.41
14293;BME280;62290;59.420;17.842;2024-03-22T00:16:42;100728.56;;;23.79;25.48
14293;BME280;62290;59.420;17.842;2024-03-22T00:19:10;100727.56;;;23.80;25.39
14293;BME280;62290;59.420;17.842;2024-03-22T00:21:36;100727.56;;;23.80;25.31
14293;BME280;62290;59.420;17.842;2024-03-22T00:24:03;100715.13;;;23.79;25.52
14293;BME280;62290;59.420;17.842;2024-03-22T00:26:29;100708.00;;;23.78;25.14
14293;BME280;62290;59.420;17.842;2024-03-22T00:28:56;100704.47;;;23.78;25.29
14293;BME280;62290;59.420;17.842;2024-03-22T00:31:23;100692.03;;;23.77;25.53
14293;BME280;62290;59.420;17.842;2024-03-22T00:33:50;100692.13;;;23.75;25.41
14293;BME280;62290;59.420;17.842;2024-03-22T00:36:18;100687.63;;;23.76;25.51
14293;BME280;62290;59.420;17.842;2024-03-22T00:38:46;100672.41;;;23.65;25.49
14293;BME280;62290;59.420;17.842;2024-03-22T00:41:12;100687.75;;;23.74;25.59
14293;BME280;62290;59.420;17.842;2024-03-22T00:43:39;100674.31;;;23.74;25.42
14293;BME280;62290;59.420;17.842;2024-03-22T00:46:05;100679.53;;;23.76;25.43
14293;BME280;62290;59.420;17.842;2024-03-22T00:48:33;100674.31;;;23.74;25.34
14293;BME280;62290;59.420;17.842;2024-03-22T00:51:00;100676.84;;;23.76;25.59
14293;BME280;62290;59.420;17.842;2024-03-22T00:53:29;100675.16;;;23.75;25.52
14293;BME280;62290;59.420;17.842;2024-03-22T00:55:55;100663.53;;;23.74;25.26
14293;BME280;62290;59.420;17.842;2024-03-22T00:58:26;100650.09;;;23.74;25.67
14293;BME280;62290;59.420;17.842;2024-03-22T01:00:52;100644.81;;;23.73;25.73
14293;BME280;62290;59.420;17.842;2024-03-22T01:03:19;100634.91;;;23.73;25.47
14293;BME280;62290;59.420;17.842;2024-03-22T01:05:45;100632.13;;;23.75;25.63
14293;BME280;62290;59.420;17.842;2024-03-22T01:08:12;100625.88;;;23.74;25.64
14293;BME280;62290;59.420;17.842;2024-03-22T01:10:40;100596.09;;;23.66;25.70
14293;BME280;62290;59.420;17.842;2024-03-22T01:13:07;100617.81;;;23.74;25.58
14293;BME280;62290;59.420;17.842;2024-03-22T01:15:33;100626.84;;;23.73;25.44
14293;BME280;62290;59.420;17.842;2024-03-22T01:18:00;100603.63;;;23.72;25.59
14293;BME280;62290;59.420;17.842;2024-03-22T01:20:26;100612.69;;;23.71;25.60
14293;BME280;62290;59.420;17.842;2024-03-22T01:22:53;100608.16;;;23.72;25.59
14293;BME280;62290;59.420;17.842;2024-03-22T01:25:19;100598.38;;;23.71;25.63
14293;BME280;62290;59.420;17.842;2024-03-22T01:27:47;100576.84;;;23.61;25.80
14293;BME280;62290;59.420;17.842;2024-03-22T01:30:13;100585.06;;;23.69;25.74
14293;BME280;62290;59.420;17.842;2024-03-22T01:32:40;100574.16;;;23.71;25.67
14293;BME280;62290;59.420;17.842;2024-03-22T01:35:07;100572.31;;;23.71;25.81
14293;BME280;62290;59.420;17.842;2024-03-22T01:37:34;100559.84;;;23.70;25.73
14293;BME280;62290;59.420;17.842;2024-03-22T01:40:01;100549.94;;;23.71;25.73
14293;BME280;62290;59.420;17.842;2024-03-22T01:42:28;100540.03;;;23.71;25.72
14293;BME280;62290;59.420;17.842;2024-03-22T01:44:55;100536.38;;;23.72;25.80
14293;BME280;62290;59.420;17.842;2024-03-22T01:47:22;100540.91;;;23.72;25.68
14293;BME280;62290;59.420;17.842;2024-03-22T01:49:50;100530.84;;;23.74;25.59
14293;BME280;62290;59.420;17.842;2024-03-22T01:52:19;100524.75;;;23.72;25.72
14293;BME280;62290;59.420;17.842;2024-03-22T01:54:45;100476.00;;;23.46;25.60
14293;BME280;62290;59.420;17.842;2024-03-22T01:57:12;100509.75;;;23.69;25.74
14293;BME280;62290;59.420;17.842;2024-03-22T01:59:38;100504.09;;;23.72;25.63
14293;BME280;62290;59.420;17.842;2024-03-22T02:02:07;100496.72;;;23.74;25.77
14293;BME280;62290;59.420;17.842;2024-03-22T02:04:33;100492.31;;;23.73;25.81
14293;BME280;62290;59.420;17.842;2024-03-22T02:07:00;100479.41;;;23.67;25.74
14293;BME280;62290;59.420;17.842;2024-03-22T02:09:26;100466.09;;;23.66;25.67
14293;BME280;62290;59.420;17.842;2024-03-22T02:11:53;100468.09;;;23.73;25.74
14293;BME280;62290;59.420;17.842;2024-03-22T02:14:19;100465.28;;;23.75;25.75
14293;BME280;62290;59.420;17.842;2024-03-22T02:16:46;100463.72;;;23.72;25.78
14293;BME280;62290;59.420;17.842;2024-03-22T02:19:14;100455.66;;;23.72;25.81
14293;BME280;62290;59.420;17.842;2024-03-22T02:21:40;100435.94;;;23.62;25.91
14293;BME280;62290;59.420;17.842;2024-03-22T02:24:08;100452.09;;;23.72;25.83
14293;BME280;62290;59.420;17.842;2024-03-22T02:26:35;100445.00;;;23.71;25.80
14293;BME280;62290;59.420;17.842;2024-03-22T02:29:01;100440.50;;;23.71;25.86
14293;BME280;62290;59.420;17.842;2024-03-22T02:31:28;100453.09;;;23.71;25.83
14293;BME280;62290;59.420;17.842;2024-03-22T02:33:54;100445.16;;;23.69;25.92
14293;BME280;62290;59.420;17.842;2024-03-22T02:36:21;100443.47;;;23.68;25.72
14293;BME280;62290;59.420;17.842;2024-03-22T02:38:47;100435.38;;;23.68;25.86
14293;BME280;62290;59.420;17.842;2024-03-22T02:41:16;100437.22;;;23.68;25.83
14293;BME280;62290;59.420;17.842;2024-03-22T02:43:42;100429.41;;;23.65;25.72
14293;BME280;62290;59.420;17.842;2024-03-22T02:46:09;100423.91;;;23.66;25.85
14293;BME280;62290;59.420;17.842;2024-03-22T02:48:35;100420.38;;;23.66;25.86
14293;BME280;62290;59.420;17.842;2024-03-22T02:51:02;100416.81;;;23.65;25.94
14293;BME280;62290;59.420;17.842;2024-03-22T02:53:28;100409.78;;;23.64;26.07
14293;BME280;62290;59.420;17.842;2024-03-22T02:55:55;100402.69;;;23.63;26.04
14293;BME280;62290;59.420;17.842;2024-03-22T02:58:22;100385.25;;;23.58;26.08
14293;BME280;62290;59.420;17.842;2024-03-22T03:00:49;100384.13;;;23.60;26.08
14293;BME280;62290;59.420;17.842;2024-03-22T03:03:15;100382.13;;;23.62;26.08
14293;BME280;62290;59.420;17.842;2024-03-22T03:05:42;100366.00;;;23.62;26.02
14293;BME280;62290;59.420;17.842;2024-03-22T03:08:09;100365.00;;;23.63;26.04
14293;BME280;62290;59.420;17.842;2024-03-22T03:10:36;100338.69;;;23.48;26.16
14293;BME280;62290;59.420;17.842;2024-03-22T03:13:02;100364.44;;;23.60;26.15
14293;BME280;62290;59.420;17.842;2024-03-22T03:15:31;100374.22;;;23.61;26.19
14293;BME280;62290;59.420;17.842;2024-03-22T03:17:57;100368.25;;;23.57;26.34
14293;BME280;62290;59.420;17.842;2024-03-22T03:20:24;100358.06;;;23.61;26.18
14293;BME280;62290;59.420;17.842;2024-03-22T03:22:51;100357.22;;;23.60;25.96
14293;BME280;62290;59.420;17.842;2024-03-22T03:25:18;100356.38;;;23.60;26.20
14293;BME280;62290;59.420;17.842;2024-03-22T03:27:44;100349.16;;;23.60;26.12
14293;BME280;62290;59.420;17.842;2024-03-22T03:30:11;100344.78;;;23.59;26.07
14293;BME280;62290;59.420;17.842;2024-03-22T03:32:38;100339.41;;;23.59;26.12
14293;BME280;62290;59.420;17.842;2024-03-22T03:35:06;100334.03;;;23.59;26.10
14293;BME280;62290;59.420;17.842;2024-03-22T03:37:32;100318.16;;;23.56;26.23
14293;BME280;62290;59.420;17.842;2024-03-22T03:39:59;100320.56;;;23.59;26.17
14293;BME280;62290;59.420;17.842;2024-03-22T03:42:25;100321.56;;;23.58;26.09
14293;BME280;62290;59.420;17.842;2024-03-22T03:44:52;100313.50;;;23.58;26.08
14293;BME280;62290;59.420;17.842;2024-03-22T03:47:18;100295.94;;;23.54;26.21
14293;BME280;62290;59.420;17.842;2024-03-22T03:49:46;100294.94;;;23.55;26.19
14293;BME280;62290;59.420;17.842;2024-03-22T03:52:13;100290.56;;;23.54;26.20
14293;BME280;62290;59.420;17.842;2024-03-22T03:54:40;100287.88;;;23.54;26.26
14293;BME280;62290;59.420;17.842;2024-03-22T03:57:06;100276.13;;;23.55;26.11
14293;BME280;62290;59.420;17.842;2024-03-22T03:59:33;100270.88;;;23.54;26.13
14293;BME280;62290;59.420;17.842;2024-03-22T04:01:59;100267.34;;;23.53;26.09
14293;BME280;62290;59.420;17.842;2024-03-22T04:04:26;100256.59;;;23.53;26.01
14293;BME280;62290;59.420;17.842;2024-03-22T04:06:53;100238.75;;;23.52;26.15
14293;BME280;62290;59.420;17.842;2024-03-22T04:09:20;100243.13;;;23.53;26.00
14293;BME280;62290;59.420;17.842;2024-03-22T04:11:46;100235.19;;;23.52;26.11
14293;BME280;62290;59.420;17.842;2024-03-22T04:14:14;100238.75;;;23.52;26.18
14293;BME280;62290;59.420;17.842;2024-03-22T04:16:40;100222.59;;;23.52;26.10
14293;BME280;62290;59.420;17.842;2024-03-22T04:19:07;100218.06;;;23.53;26.05
14293;BME280;62290;59.420;17.842;2024-03-22T04:21:33;100213.56;;;23.53;26.13
14293;BME280;62290;59.420;17.842;2024-03-22T04:24:01;100218.78;;;23.55;26.08
14293;BME280;62290;59.420;17.842;2024-03-22T04:26:28;100204.63;;;23.53;26.03
14293;BME280;62290;59.420;17.842;2024-03-22T04:28:55;100211.00;;;23.52;26.08
14293;BME280;62290;59.420;17.842;2024-03-22T04:31:20;100196.72;;;23.51;26.06
14293;BME280;62290;59.420;17.842;2024-03-22T04:33:47;100191.34;;;23.51;26.12
14293;BME280;62290;59.420;17.842;2024-03-22T04:36:15;100175.38;;;23.40;26.11
14293;BME280;62290;59.420;17.842;2024-03-22T04:38:42;100186.94;;;23.50;26.10
14293;BME280;62290;59.420;17.842;2024-03-22T04:41:10;100162.03;;;23.48;26.12
14293;BME280;62290;59.420;17.842;2024-03-22T04:43:38;100160.34;;;23.47;26.08
14293;BME280;62290;59.420;17.842;2024-03-22T04:46:05;100156.78;;;23.47;26.17
14293;BME280;62290;59.420;17.842;2024-03-22T04:48:32;100144.19;;;23.47;26.14
14293;BME280;62290;59.420;17.842;2024-03-22T04:50:58;100137.16;;;23.46;26.11
14293;BME280;62290;59.420;17.842;2024-03-22T04:53:25;100132.50;;;23.39;26.20
14293;BME280;62290;59.420;17.842;2024-03-22T04:55:52;100162.31;;;23.45;26.20
14293;BME280;62290;59.420;17.842;2024-03-22T04:58:21;100147.91;;;23.46;25.98
14293;BME280;62290;59.420;17.842;2024-03-22T05:00:48;100135.59;;;23.44;26.17
14293;BME280;62290;59.420;17.842;2024-03-22T05:03:15;100150.88;;;23.43;26.11
14293;BME280;62290;59.420;17.842;2024-03-22T05:05:42;100138.56;;;23.41;26.25
14293;BME280;62290;59.420;17.842;2024-03-22T05:08:09;100139.09;;;23.44;26.18
14293;BME280;62290;59.420;17.842;2024-03-22T05:10:35;100123.81;;;23.45;26.15
14293;BME280;62290;59.420;17.842;2024-03-22T05:13:03;100117.47;;;23.46;26.09
14293;BME280;62290;59.420;17.842;2024-03-22T05:15:30;100099.50;;;23.46;26.09
14293;BME280;62290;59.420;17.842;2024-03-22T05:17:58;100110.38;;;23.45;26.09
14293;BME280;62290;59.420;17.842;2024-03-22T05:20:24;100101.47;;;23.44;26.04
14293;BME280;62290;59.420;17.842;2024-03-22T05:22:51;100091.03;;;23.41;26.01
14293;BME280;62290;59.420;17.842;2024-03-22T05:25:17;100096.94;;;23.45;26.08
14293;BME280;62290;59.420;17.842;2024-03-22T05:27:44;100086.19;;;23.45;26.06
14293;BME280;62290;59.420;17.842;2024-03-22T05:30:11;100052.22;;;23.34;26.10
14293;BME280;62290;59.420;17.842;2024-03-22T05:32:40;100063.81;;;23.44;26.05
14293;BME280;62290;59.420;17.842;2024-03-22T05:35:08;100057.75;;;23.42;26.09
14293;BME280;62290;59.420;17.842;2024-03-22T05:37:35;100058.75;;;23.41;26.04
14293;BME280;62290;59.420;17.842;2024-03-22T05:40:01;100063.28;;;23.41;26.04
14293;BME280;62290;59.420;17.842;2024-03-22T05:42:29;100057.91;;;23.41;25.93
14293;BME280;62290;59.420;17.842;2024-03-22T05:44:56;100060.72;;;23.39;25.97
14293;BME280;62290;59.420;17.842;2024-03-22T05:47:23;100058.88;;;23.40;26.13
14293;BME280;62290;59.420;17.842;2024-03-22T05:49:50;100052.66;;;23.39;26.14
14293;BME280;62290;59.420;17.842;2024-03-22T05:52:17;100057.34;;;23.37;26.09
14293;BME280;62290;59.420;17.842;2024-03-22T05:54:43;100052.66;;;23.39;26.10
14293;BME280;62290;59.420;17.842;2024-03-22T05:57:11;100040.94;;;23.30;26.13
14293;BME280;62290;59.420;17.842;2024-03-22T05:59:37;100042.06;;;23.38;26.27
14293;BME280;62290;59.420;17.842;2024-03-22T06:02:04;100027.63;;;23.39;26.08
14293;BME280;62290;59.420;17.842;2024-03-22T06:04:30;100026.03;;;23.36;26.18
14293;BME280;62290;59.420;17.842;2024-03-22T06:06:59;100025.94;;;23.38;26.11
14293;BME280;62290;59.420;17.842;2024-03-22T06:09:26;100018.84;;;23.37;26.16
14293;BME280;62290;59.420;17.842;2024-03-22T06:12:04;100017.97;;;23.36;26.17
14293;BME280;62290;59.420;17.842;2024-03-22T06:14:31;100001.81;;;23.36;26.23
14293;BME280;62290;59.420;17.842;2024-03-22T06:16:58;99991.06;;;23.36;26.17
14293;BME280;62290;59.420;17.842;2024-03-22T06:19:24;99975.47;;;23.22;26.26
14293;BME280;62290;59.420;17.842;2024-03-22T06:21:51;99994.78;;;23.35;26.02
14293;BME280;62290;59.420;17.842;2024-03-22T06:24:18;99977.63;;;23.36;26.24
14293;BME280;62290;59.420;17.842;2024-03-22T06:26:45;99958.97;;;23.34;26.22
14293;BME280;62290;59.420;17.842;2024-03-22T06:29:11;99956.13;;;23.36;26.15
14293;BME280;62290;59.420;17.842;2024-03-22T06:31:39;99967.03;;;23.34;26.08
14293;BME280;62290;59.420;17.842;2024-03-22T06:34:05;99927.81;;;23.14;26.27
14293;BME280;62290;59.420;17.842;2024-03-22T06:36:32;99969.56;;;23.36;26.29
14293;BME280;62290;59.420;17.842;2024-03-22T06:38:58;99959.81;;;23.35;26.22
14293;BME280;62290;59.420;17.842;2024-03-22T06:41:27;99955.31;;;23.35;26.10
14293;BME280;62290;59.420;17.842;2024-03-22T06:43:53;99956.28;;;23.34;26.26
14293;BME280;62290;59.420;17.842;2024-03-22T06:46:21;99957.13;;;23.35;26.16
14293;BME280;62290;59.420;17.842;2024-03-22T06:48:47;99948.38;;;23.33;26.31
14293;BME280;62290;59.420;17.842;2024-03-22T06:51:13;99944.69;;;23.34;26.08
14293;BME280;62290;59.420;17.842;2024-03-22T06:53:40;99929.56;;;23.33;26.43
14293;BME280;62290;59.420;17.842;2024-03-22T06:56:07;99926.03;;;23.32;26.38
14293;BME280;62290;59.420;17.842;2024-03-22T06:58:36;99911.63;;;23.24;26.27
14293;BME280;62290;59.420;17.842;2024-03-22T07:01:04;99917.28;;;23.30;26.28
14293;BME280;62290;59.420;17.842;2024-03-22T07:03:30;99916.41;;;23.30;26.48
14293;BME280;62290;59.420;17.842;2024-03-22T07:05:57;99912.03;;;23.29;26.33
14293;BME280;62290;59.420;17.842;2024-03-22T07:08:23;99922.78;;;23.29;26.41
14293;BME280;62290;59.420;17.842;2024-03-22T07:10:50;99909.50;;;23.27;26.50
14293;BME280;62290;59.420;17.842;2024-03-22T07:13:16;99907.66;;;23.28;26.45
14293;BME280;62290;59.420;17.842;2024-03-22T07:15:45;99905.78;;;23.28;26.53
14293;BME280;62290;59.420;17.842;2024-03-22T07:18:13;99918.41;;;23.28;26.62
14293;BME280;62290;59.420;17.842;2024-03-22T07:20:40;99903.44;;;23.25;26.56
14293;BME280;62290;59.420;17.842;2024-03-22T07:23:07;99903.09;;;23.28;26.54
14293;BME280;62290;59.420;17.842;2024-03-22T07:25:34;99896.06;;;23.27;26.64
14293;BME280;62290;59.420;17.842;2024-03-22T07:28:00;99874.47;;;23.19;26.60
14293;BME280;62290;59.420;17.842;2024-03-22T07:30:27;99884.44;;;23.27;26.61
14293;BME280;62290;59.420;17.842;2024-03-22T07:32:54;99876.00;;;23.22;26.81
14293;BME280;62290;59.420;17.842;2024-03-22T07:35:22;99884.63;;;23.25;26.71
14293;BME280;62290;59.420;17.842;2024-03-22T07:37:48;99877.84;;;23.21;26.77
14293;BME280;62290;59.420;17.842;2024-03-22T07:40:15;99880.53;;;23.21;26.80
14293;BME280;62290;59.420;17.842;2024-03-22T07:42:41;99871.19;;;23.25;26.82
14293;BME280;62290;59.420;17.842;2024-03-22T07:45:08;99874.69;;;23.26;26.81
14293;BME280;62290;59.420;17.842;2024-03-22T07:47:34;99864.78;;;23.26;26.80
14293;BME280;62290;59.420;17.842;2024-03-22T07:50:05;99856.72;;;23.26;26.75
14293;BME280;62290;59.420;17.842;2024-03-22T07:52:34;99847.13;;;23.24;26.93
14293;BME280;62290;59.420;17.842;2024-03-22T07:55:01;99839.53;;;23.19;27.00
14293;BME280;62290;59.420;17.842;2024-03-22T07:57:28;99844.97;;;23.27;27.21
14293;BME280;62290;59.420;17.842;2024-03-22T07:59:57;99832.81;;;23.23;27.25
14293;BME280;62290;59.420;17.842;2024-03-22T08:02:23;99836.91;;;23.27;27.37
14293;BME280;62290;59.420;17.842;2024-03-22T08:04:50;99820.63;;;23.29;27.51
14293;BME280;62290;59.420;17.842;2024-03-22T08:07:17;99821.47;;;23.29;27.65
14293;BME280;62290;59.420;17.842;2024-03-22T08:09:45;99810.50;;;23.23;27.44
14293;BME280;62290;59.420;17.842;2024-03-22T08:12:10;99826.38;;;23.34;27.58
14293;BME280;62290;59.420;17.842;2024-03-22T08:14:37;99827.06;;;23.36;27.62
14293;BME280;62290;59.420;17.842;2024-03-22T08:17:04;99808.59;;;23.33;28.31
14293;BME280;62290;59.420;17.842;2024-03-22T08:19:32;99801.78;;;23.39;28.38
14293;BME280;62290;59.420;17.842;2024-03-22T08:21:58;99814.19;;;23.40;28.79
14293;BME280;62290;59.420;17.842;2024-03-22T08:24:26;99803.88;;;23.35;29.54
14293;BME280;62290;59.420;17.842;2024-03-22T08:26:52;99806.56;;;23.35;29.38
14293;BME280;62290;59.420;17.842;2024-03-22T08:29:19;99796.81;;;23.34;29.57
14293;BME280;62290;59.420;17.842;2024-03-22T08:31:45;99800.19;;;23.36;29.40
14293;BME280;62290;59.420;17.842;2024-03-22T08:34:12;99794.97;;;23.34;29.30
14293;BME280;62290;59.420;17.842;2024-03-22T08:36:38;99791.84;;;23.39;29.21
14293;BME280;62290;59.420;17.842;2024-03-22T08:39:05;99775.41;;;23.42;29.10
14293;BME280;62290;59.420;17.842;2024-03-22T08:41:37;99778.78;;;23.44;28.92
14293;BME280;62290;59.420;17.842;2024-03-22T08:44:04;99769.72;;;23.45;28.87
14293;BME280;62290;59.420;17.842;2024-03-22T08:46:30;99760.66;;;23.46;28.74
14293;BME280;62290;59.420;17.842;2024-03-22T08:48:58;99758.66;;;23.48;28.78
14293;BME280;62290;59.420;17.842;2024-03-22T08:51:24;99752.97;;;23.51;29.03
14293;BME280;62290;59.420;17.842;2024-03-22T08:53:51;99746.59;;;23.52;29.24
14293;BME280;62290;59.420;17.842;2024-03-22T08:56:17;99745.59;;;23.53;29.92
14293;BME280;62290;59.420;17.842;2024-03-22T08:58:45;99735.50;;;23.55;30.23
14293;BME280;62290;59.420;17.842;2024-03-22T09:01:11;99730.13;;;23.55;30.09
14293;BME280;62290;59.420;17.842;2024-03-22T09:03:38;99730.50;;;23.60;29.88
14293;BME280;62290;59.420;17.842;2024-03-22T09:06:05;99718.59;;;23.63;29.90
14293;BME280;62290;59.420;17.842;2024-03-22T09:08:32;99705.63;;;23.58;29.73
14293;BME280;62290;59.420;17.842;2024-03-22T09:10:59;99712.72;;;23.67;29.72
14293;BME280;62290;59.420;17.842;2024-03-22T09:13:26;99707.22;;;23.69;29.66
14293;BME280;62290;59.420;17.842;2024-03-22T09:15:57;99717.66;;;23.72;29.50
14293;BME280;62290;59.420;17.842;2024-03-22T09:18:25;99713.13;;;23.72;29.54
14293;BME280;62290;59.420;17.842;2024-03-22T09:20:52;99708.44;;;23.74;29.33
14293;BME280;62290;59.420;17.842;2024-03-22T09:23:19;99681.09;;;23.61;29.50
14293;BME280;62290;59.420;17.842;2024-03-22T09:25:45;99710.63;;;23.79;29.38
14293;BME280;62290;59.420;17.842;2024-03-22T09:28:13;99702.56;;;23.79;29.20
14293;BME280;62290;59.420;17.842;2024-03-22T09:30:39;99679.09;;;23.63;28.91
14293;BME280;62290;59.420;17.842;2024-03-22T09:33:08;99697.81;;;23.73;29.42
14293;BME280;62290;59.420;17.842;2024-03-22T09:35:34;99697.19;;;23.79;29.12
14293;BME280;62290;59.420;17.842;2024-03-22T09:38:02;99702.38;;;23.80;29.00
14293;BME280;62290;59.420;17.842;2024-03-22T09:40:28;99697.00;;;23.80;28.96
14293;BME280;62290;59.420;17.842;2024-03-22T09:42:59;99693.00;;;23.84;28.99
14293;BME280;62290;59.420;17.842;2024-03-22T09:45:31;99693.69;;;23.86;28.96
14293;BME280;62290;59.420;17.842;2024-03-22T09:47:58;99689.16;;;23.87;28.83
14293;BME280;62290;59.420;17.842;2024-03-22T09:50:26;99671.63;;;23.83;29.00
14293;BME280;62290;59.420;17.842;2024-03-22T09:52:56;99682.28;;;23.92;28.77
14293;BME280;62290;59.420;17.842;2024-03-22T09:55:22;99673.53;;;23.90;28.44
14293;BME280;62290;59.420;17.842;2024-03-22T09:57:50;99670.50;;;23.93;28.52
14293;BME280;62290;59.420;17.842;2024-03-22T10:00:18;99646.59;;;23.82;28.50
14293;BME280;62290;59.420;17.842;2024-03-22T10:02:46;99658.44;;;23.98;28.74
14293;BME280;62290;59.420;17.842;2024-03-22T10:05:13;99656.59;;;23.98;28.47
14293;BME280;62290;59.420;17.842;2024-03-22T10:07:43;99645.66;;;24.00;28.64
14293;BME280;62290;59.420;17.842;2024-03-22T10:10:09;99651.72;;;24.02;28.59
14293;BME280;62290;59.420;17.842;2024-03-22T10:12:38;99632.06;;;24.01;28.34
14293;BME280;62290;59.420;17.842;2024-03-22T10:15:05;99627.16;;;24.05;28.43
14293;BME280;62290;59.420;17.842;2024-03-22T10:17:35;99624.66;;;24.03;28.50
14293;BME280;62290;59.420;17.842;2024-03-22T10:20:01;99626.19;;;24.06;28.66
14293;BME280;62290;59.420;17.842;2024-03-22T10:22:28;99627.72;;;24.08;28.59
14293;BME280;62290;59.420;17.842;2024-03-22T10:24:55;99624.53;;;24.13;28.59
14293;BME280;62290;59.420;17.842;2024-03-22T10:27:27;99609.06;;;24.15;28.76
14293;BME280;62290;59.420;17.842;2024-03-22T10:29:53;99601.16;;;24.13;28.75
14293;BME280;62290;59.420;17.842;2024-03-22T10:32:20;99607.06;;;24.17;28.80
14293;BME280;62290;59.420;17.842;2024-03-22T10:34:46;99605.38;;;24.16;28.64
14293;BME280;62290;59.420;17.842;2024-03-22T10:37:15;99602.69;;;24.16;28.82
14293;BME280;62290;59.420;17.842;2024-03-22T10:39:42;99593.63;;;24.17;28.50
14293;BME280;62290;59.420;17.842;2024-03-22T10:42:11;99589.75;;;24.19;28.62
14293;BME280;62290;59.420;17.842;2024-03-22T10:44:38;99592.44;;;24.19;28.30
14293;BME280;62290;59.420;17.842;2024-03-22T10:47:05;99585.88;;;24.22;28.31
14293;BME280;62290;59.420;17.842;2024-03-22T10:49:37;99575.94;;;24.22;28.19
14293;BME280;62290;59.420;17.842;2024-03-22T10:52:05;99579.66;;;24.21;28.15
14293;BME280;62290;59.420;17.842;2024-03-22T10:54:35;99574.28;;;24.21;28.30
14293;BME280;62290;59.420;17.842;2024-03-22T10:57:05;99575.78;;;24.24;28.20
14293;BME280;62290;59.420;17.842;2024-03-22T10:59:34;99573.94;;;24.24;28.19
14293;BME280;62290;59.420;17.842;2024-03-22T11:02:05;99568.72;;;24.23;28.47
14293;BME280;62290;59.420;17.842;2024-03-22T11:04:33;99568.88;;;24.21;28.35
14293;BME280;62290;59.420;17.842;2024-03-22T11:07:00;99562.00;;;24.19;28.26
14293;BME280;62290;59.420;17.842;2024-03-22T11:09:28;99557.59;;;24.18;28.33
14293;BME280;62290;59.420;17.842;2024-03-22T11:11:56;99560.28;;;24.18;28.29
14293;BME280;62290;59.420;17.842;2024-03-22T11:14:24;99540.97;;;24.14;28.32
14293;BME280;62290;59.420;17.842;2024-03-22T11:16:52;99544.31;;;24.16;28.48
14293;BME280;62290;59.420;17.842;2024-03-22T11:19:18;99541.78;;;24.15;28.38
14293;BME280;62290;59.420;17.842;2024-03-22T11:21:45;99536.38;;;24.15;28.62
14293;BME280;62290;59.420;17.842;2024-03-22T11:24:12;99530.19;;;24.14;28.53
14293;BME280;62290;59.420;17.842;2024-03-22T11:26:39;99522.94;;;24.15;28.34
14293;BME280;62290;59.420;17.842;2024-03-22T11:29:05;99521.25;;;24.14;28.38
14293;BME280;62290;59.420;17.842;2024-03-22T11:31:32;99517.72;;;24.13;28.41
14293;BME280;62290;59.420;17.842;2024-03-22T11:33:59;99518.56;;;24.14;28.42
14293;BME280;62290;59.420;17.842;2024-03-22T11:36:26;99512.34;;;24.13;28.81
14293;BME280;62290;59.420;17.842;2024-03-22T11:38:53;99507.81;;;24.14;28.70
14293;BME280;62290;59.420;17.842;2024-03-22T11:41:22;99491.75;;;24.04;28.67
14293;BME280;62290;59.420;17.842;2024-03-22T11:43:50;99507.63;;;24.15;28.85
14293;BME280;62290;59.420;17.842;2024-03-22T11:46:17;99518.25;;;24.17;28.83
14293;BME280;62290;59.420;17.842;2024-03-22T11:48:44;99486.91;;;24.08;28.66
14293;BME280;62290;59.420;17.842;2024-03-22T11:51:12;99503.75;;;24.18;28.83
14293;BME280;62290;59.420;17.842;2024-03-22T11:53:38;99496.53;;;24.18;28.75
14293;BME280;62290;59.420;17.842;2024-03-22T11:56:08;99485.94;;;24.17;28.81
14293;BME280;62290;59.420;17.842;2024-03-22T11:58:34;99486.75;;;24.17;30.07
14293;BME280;62290;59.420;17.842;2024-03-22T12:01:01;99476.84;;;24.18;30.96
14293;BME280;62290;59.420;17.842;2024-03-22T12:03:28;99480.91;;;24.14;31.17
14293;BME280;62290;59.420;17.842;2024-03-22T12:05:57;99451.06;;;23.99;31.29
14293;BME280;62290;59.420;17.842;2024-03-22T12:08:24;99475.00;;;24.10;31.34
14293;BME280;62290;59.420;17.842;2024-03-22T12:10:51;99469.06;;;24.07;31.15
14293;BME280;62290;59.420;17.842;2024-03-22T12:13:17;99464.69;;;24.06;31.43
14293;BME280;62290;59.420;17.842;2024-03-22T12:15:44;99459.03;;;24.09;31.12
14293;BME280;62290;59.420;17.842;2024-03-22T12:18:11;99458.50;;;24.13;31.14
14293;BME280;62290;59.420;17.842;2024-03-22T12:20:38;99449.78;;;24.11;31.06
14293;BME280;62290;59.420;17.842;2024-03-22T12:23:04;99454.63;;;24.16;30.79
14293;BME280;62290;59.420;17.842;2024-03-22T12:25:33;99454.47;;;24.17;30.63
14293;BME280;62290;59.420;17.842;2024-03-22T12:27:59;99448.94;;;24.19;30.72
14293;BME280;62290;59.420;17.842;2024-03-22T12:30:26;99425.69;;;24.10;30.64
14293;BME280;62290;59.420;17.842;2024-03-22T12:32:52;99435.13;;;24.22;30.56
14293;BME280;62290;59.420;17.842;2024-03-22T12:35:19;99429.75;;;24.22;30.47
14293;BME280;62290;59.420;17.842;2024-03-22T12:37:45;99422.34;;;24.24;30.26
14293;BME280;62290;59.420;17.842;2024-03-22T12:40:12;99418.63;;;24.25;30.59
14293;BME280;62290;59.420;17.842;2024-03-22T12:42:41;99419.47;;;24.25;30.22
14293;BME280;62290;59.420;17.842;2024-03-22T12:45:09;99412.44;;;24.24;30.01